map of LRL home
LRL - Airport
Location
City:  Niamtougou, Kara, Togo
Name:Niamtougou International Airport
ICAO:DXNG
IATA:LRL

Details
Type:Airport (Aerodrome, Airfield)
Use:Public/Civil, International (customs port of entry)
Latitude:946'39"N (9.777500)
Longitude:105'44"E (1.095556)
Elevation:1516 ft (462 m)
Variation:2.02W (WMM2015 magnetic declination)
0.10 annual change
Runways:1
Longest:8202 × 148 ft (2500 × 45 m), paved

Time
Time Zone:UTC+0
Local Time:

Weather
METAR:DXNG 210900Z 02011KT CAVOK 27/M09 Q1018
TAF:DXNG 210500Z 2106/2206 04006KT CAVOK= TAF KRFD 210526Z 2106/2206 VRB03KT P6SM BKN250
FM211400 14008KT P6SM BKN200
FM211800 14012G17KT P6SM BKN080
FM220200 13014G20KT P6SM SCT080 BKN250

Related Locations
Nearby:
Farthest:FUN: 12287 mi / 19774 km
Funafuti Atoll [Intl], TV

Find:

   beyond  
but within

Other Information
Maps:
NOTAMs:
Links:
Sources:

  
  • flag of Togo
  

Sectional Chart

Flight Planning
at skyvector.com

Satellite Image

Google Maps Satellite view

 

Copyright © 2004-2019 Karl L. Swartz. All rights reserved.
The Great Circle Mapper name and logo are trademarks of the Great Circle Mapper.
All other trademarks mentioned herein belong to their respective owners.
Please see credits for attibutions and further copyright information.

  Follow gcmap on Facebook Follow gcmap on Twitter Follow gcmap on Google+ GCmap on LinkedIn

hCard Microformat

Geo Microformat